sensor_id;sensor_type;location;lat;lon;timestamp;pressure;altitude;pressure_sealevel;temperature;humidity
32081;BME280;18593;51.426;7.030;2024-01-25T00:01:35;101637.34;;;9.39;72.10
32081;BME280;18593;51.426;7.030;2024-01-25T00:04:07;101623.38;;;9.37;72.09
32081;BME280;18593;51.426;7.030;2024-01-25T00:06:37;101623.19;;;9.39;72.15
32081;BME280;18593;51.426;7.030;2024-01-25T00:09:06;101628.41;;;9.32;72.25
32081;BME280;18593;51.426;7.030;2024-01-25T00:11:34;101626.72;;;9.31;72.66
32081;BME280;18593;51.426;7.030;2024-01-25T00:14:09;101628.72;;;9.37;72.33
32081;BME280;18593;51.426;7.030;2024-01-25T00:16:44;101635.31;;;9.41;72.42
32081;BME280;18593;51.426;7.030;2024-01-25T00:19:15;101633.88;;;9.31;72.37
32081;BME280;18593;51.426;7.030;2024-01-25T00:21:42;101633.19;;;9.37;72.59
32081;BME280;18593;51.426;7.030;2024-01-25T00:24:15;101635.16;;;9.43;72.47
32081;BME280;18593;51.426;7.030;2024-01-25T00:26:43;101632.31;;;9.44;72.17
32081;BME280;18593;51.426;7.030;2024-01-25T00:29:10;101633.34;;;9.35;72.16
32081;BME280;18593;51.426;7.030;2024-01-25T00:31:38;101639.19;;;9.39;72.36
32081;BME280;18593;51.426;7.030;2024-01-25T00:34:06;101639.81;;;9.41;72.12
32081;BME280;18593;51.426;7.030;2024-01-25T00:36:44;101637.97;;;9.41;72.00
32081;BME280;18593;51.426;7.030;2024-01-25T00:39:15;101645.00;;;9.42;72.28
32081;BME280;18593;51.426;7.030;2024-01-25T00:41:44;101642.66;;;9.39;72.45
32081;BME280;18593;51.426;7.030;2024-01-25T00:44:15;101645.31;;;9.39;72.22
32081;BME280;18593;51.426;7.030;2024-01-25T00:46:46;101631.38;;;9.37;72.36
32081;BME280;18593;51.426;7.030;2024-01-25T00:49:20;101631.69;;;9.42;72.28
32081;BME280;18593;51.426;7.030;2024-01-25T00:51:52;101631.31;;;9.45;72.16
32081;BME280;18593;51.426;7.030;2024-01-25T00:54:21;101635.50;;;9.40;71.86
32081;BME280;18593;51.426;7.030;2024-01-25T00:56:50;101637.69;;;9.36;72.17
32081;BME280;18593;51.426;7.030;2024-01-25T00:59:23;101644.22;;;9.25;72.42
32081;BME280;18593;51.426;7.030;2024-01-25T01:01:53;101637.22;;;9.33;72.21
32081;BME280;18593;51.426;7.030;2024-01-25T01:04:25;101631.81;;;9.41;72.00
32081;BME280;18593;51.426;7.030;2024-01-25T01:06:59;101639.19;;;9.39;71.78
32081;BME280;18593;51.426;7.030;2024-01-25T01:09:26;101632.22;;;9.29;71.84
32081;BME280;18593;51.426;7.030;2024-01-25T01:11:55;101642.69;;;9.31;71.85
32081;BME280;18593;51.426;7.030;2024-01-25T01:14:22;101635.84;;;9.37;71.71
32081;BME280;18593;51.426;7.030;2024-01-25T01:16:50;101638.50;;;9.37;71.37
32081;BME280;18593;51.426;7.030;2024-01-25T01:19:20;101632.53;;;9.35;71.19
32081;BME280;18593;51.426;7.030;2024-01-25T01:21:47;101639.22;;;9.31;71.64
32081;BME280;18593;51.426;7.030;2024-01-25T01:24:19;101645.53;;;9.29;71.35
32081;BME280;18593;51.426;7.030;2024-01-25T01:26:47;101650.75;;;9.23;71.67
32081;BME280;18593;51.426;7.030;2024-01-25T01:29:18;101661.84;;;9.26;71.69
32081;BME280;18593;51.426;7.030;2024-01-25T01:31:46;101659.03;;;9.28;71.50
32081;BME280;18593;51.426;7.030;2024-01-25T01:34:13;101656.38;;;9.28;71.38
32081;BME280;18593;51.426;7.030;2024-01-25T01:36:40;101652.88;;;9.27;71.29
32081;BME280;18593;51.426;7.030;2024-01-25T01:39:09;101666.34;;;9.26;71.12
32081;BME280;18593;51.426;7.030;2024-01-25T01:41:38;101668.00;;;9.27;71.29
32081;BME280;18593;51.426;7.030;2024-01-25T01:44:07;101670.84;;;9.25;71.06
32081;BME280;18593;51.426;7.030;2024-01-25T01:46:36;101670.19;;;9.23;71.11
32081;BME280;18593;51.426;7.030;2024-01-25T01:49:07;101675.66;;;9.22;71.22
32081;BME280;18593;51.426;7.030;2024-01-25T01:51:34;101676.03;;;9.19;71.60
32081;BME280;18593;51.426;7.030;2024-01-25T01:54:03;101678.34;;;9.22;71.61
32081;BME280;18593;51.426;7.030;2024-01-25T01:56:34;101687.84;;;9.16;71.90
32081;BME280;18593;51.426;7.030;2024-01-25T01:59:05;101680.03;;;9.15;72.17
32081;BME280;18593;51.426;7.030;2024-01-25T02:01:35;101680.88;;;9.15;72.18
32081;BME280;18593;51.426;7.030;2024-01-25T02:04:03;101676.19;;;9.17;72.02
32081;BME280;18593;51.426;7.030;2024-01-25T02:06:31;101685.84;;;9.18;72.11
32081;BME280;18593;51.426;7.030;2024-01-25T02:08:58;101689.69;;;9.16;72.18
32081;BME280;18593;51.426;7.030;2024-01-25T02:11:26;101684.16;;;9.17;72.33
32081;BME280;18593;51.426;7.030;2024-01-25T02:13:56;101689.16;;;9.20;72.14
32081;BME280;18593;51.426;7.030;2024-01-25T02:16:25;101700.81;;;9.19;72.11
32081;BME280;18593;51.426;7.030;2024-01-25T02:18:52;101700.81;;;9.19;72.38
32081;BME280;18593;51.426;7.030;2024-01-25T02:21:23;101693.66;;;9.20;72.08
32081;BME280;18593;51.426;7.030;2024-01-25T02:23:51;101694.34;;;9.14;72.31
32081;BME280;18593;51.426;7.030;2024-01-25T02:26:19;101699.00;;;9.12;72.38
32081;BME280;18593;51.426;7.030;2024-01-25T02:28:47;101711.31;;;9.13;72.33
32081;BME280;18593;51.426;7.030;2024-01-25T02:31:16;101716.66;;;9.13;72.29
32081;BME280;18593;51.426;7.030;2024-01-25T02:33:47;101724.81;;;9.03;72.52
32081;BME280;18593;51.426;7.030;2024-01-25T02:36:16;101715.53;;;8.99;72.65
32081;BME280;18593;51.426;7.030;2024-01-25T02:38:43;101720.34;;;8.95;72.73
32081;BME280;18593;51.426;7.030;2024-01-25T02:41:15;101721.66;;;8.99;72.73
32081;BME280;18593;51.426;7.030;2024-01-25T02:43:42;101727.16;;;8.98;72.65
32081;BME280;18593;51.426;7.030;2024-01-25T02:46:11;101714.50;;;9.00;72.53
32081;BME280;18593;51.426;7.030;2024-01-25T02:48:40;101716.34;;;8.99;72.28
32081;BME280;18593;51.426;7.030;2024-01-25T02:51:10;101715.84;;;9.04;72.14
32081;BME280;18593;51.426;7.030;2024-01-25T02:53:37;101719.50;;;9.03;71.74
32081;BME280;18593;51.426;7.030;2024-01-25T02:59:19;101720.16;;;8.97;71.40
32081;BME280;18593;51.426;7.030;2024-01-25T03:01:47;101721.16;;;8.96;71.60
32081;BME280;18593;51.426;7.030;2024-01-25T03:04:16;101720.53;;;8.94;71.28
32081;BME280;18593;51.426;7.030;2024-01-25T03:06:43;101721.03;;;8.89;71.55
32081;BME280;18593;51.426;7.030;2024-01-25T03:09:16;101724.69;;;8.88;71.53
32081;BME280;18593;51.426;7.030;2024-01-25T03:11:44;101737.13;;;8.88;71.58
32081;BME280;18593;51.426;7.030;2024-01-25T03:14:16;101743.47;;;8.87;71.27
32081;BME280;18593;51.426;7.030;2024-01-25T03:16:43;101737.13;;;8.88;71.17
32081;BME280;18593;51.426;7.030;2024-01-25T03:19:27;101740.16;;;8.85;71.06
32081;BME280;18593;51.426;7.030;2024-01-25T03:22:25;101736.81;;;8.83;71.16
32081;BME280;18593;51.426;7.030;2024-01-25T03:25:00;101738.81;;;8.81;70.99
32081;BME280;18593;51.426;7.030;2024-01-25T03:27:33;101743.50;;;8.79;71.16
32081;BME280;18593;51.426;7.030;2024-01-25T03:30:02;101747.13;;;8.77;71.26
32081;BME280;18593;51.426;7.030;2024-01-25T03:32:33;101755.78;;;8.80;70.97
32081;BME280;18593;51.426;7.030;2024-01-25T03:35:00;101753.44;;;8.76;70.99
32081;BME280;18593;51.426;7.030;2024-01-25T03:37:28;101744.97;;;8.73;70.92
32081;BME280;18593;51.426;7.030;2024-01-25T03:40:02;101751.47;;;8.70;70.77
32081;BME280;18593;51.426;7.030;2024-01-25T03:42:31;101741.16;;;8.67;71.03
32081;BME280;18593;51.426;7.030;2024-01-25T03:45:08;101741.97;;;8.68;71.03
32081;BME280;18593;51.426;7.030;2024-01-25T03:47:38;101744.81;;;8.66;71.02
32081;BME280;18593;51.426;7.030;2024-01-25T03:50:06;101748.47;;;8.65;70.85
32081;BME280;18593;51.426;7.030;2024-01-25T03:52:33;101749.81;;;8.61;70.62
32081;BME280;18593;51.426;7.030;2024-01-25T03:55:04;101760.75;;;8.58;70.83
32081;BME280;18593;51.426;7.030;2024-01-25T03:57:35;101761.78;;;8.57;70.95
32081;BME280;18593;51.426;7.030;2024-01-25T04:00:09;101761.13;;;8.55;70.61
32081;BME280;18593;51.426;7.030;2024-01-25T04:02:37;101762.25;;;8.52;70.73
32081;BME280;18593;51.426;7.030;2024-01-25T04:05:05;101766.09;;;8.50;70.51
32081;BME280;18593;51.426;7.030;2024-01-25T04:07:33;101755.78;;;8.47;70.55
32081;BME280;18593;51.426;7.030;2024-01-25T04:10:01;101759.63;;;8.44;70.41
32081;BME280;18593;51.426;7.030;2024-01-25T04:12:28;101758.09;;;8.42;70.50
32081;BME280;18593;51.426;7.030;2024-01-25T04:14:57;101758.44;;;8.39;70.44
32081;BME280;18593;51.426;7.030;2024-01-25T04:17:26;101768.53;;;8.35;70.56
32081;BME280;18593;51.426;7.030;2024-01-25T04:19:54;101763.38;;;8.34;70.63
32081;BME280;18593;51.426;7.030;2024-01-25T04:22:21;101758.22;;;8.32;70.69
32081;BME280;18593;51.426;7.030;2024-01-25T04:24:50;101758.41;;;8.31;70.76
32081;BME280;18593;51.426;7.030;2024-01-25T04:27:17;101772.00;;;8.27;71.01
32081;BME280;18593;51.426;7.030;2024-01-25T04:29:45;101777.31;;;8.27;70.83
32081;BME280;18593;51.426;7.030;2024-01-25T04:32:14;101772.34;;;8.24;71.06
32081;BME280;18593;51.426;7.030;2024-01-25T04:34:44;101780.31;;;8.24;70.77
32081;BME280;18593;51.426;7.030;2024-01-25T04:37:13;101778.81;;;8.22;70.87
32081;BME280;18593;51.426;7.030;2024-01-25T04:39:41;101778.31;;;8.18;71.02
32081;BME280;18593;51.426;7.030;2024-01-25T04:42:09;101776.66;;;8.17;70.99
32081;BME280;18593;51.426;7.030;2024-01-25T04:44:36;101775.81;;;8.17;70.94
32081;BME280;18593;51.426;7.030;2024-01-25T04:47:04;101779.47;;;8.16;70.89
32081;BME280;18593;51.426;7.030;2024-01-25T04:49:31;101783.28;;;8.13;71.00
32081;BME280;18593;51.426;7.030;2024-01-25T04:52:03;101787.09;;;8.11;70.93
32081;BME280;18593;51.426;7.030;2024-01-25T04:54:31;101776.78;;;8.08;70.89
32081;BME280;18593;51.426;7.030;2024-01-25T04:56:58;101777.78;;;8.07;70.95
32081;BME280;18593;51.426;7.030;2024-01-25T04:59:25;101780.75;;;8.04;70.91
32081;BME280;18593;51.426;7.030;2024-01-25T05:01:53;101787.06;;;8.03;71.05
32081;BME280;18593;51.426;7.030;2024-01-25T05:04:21;101782.91;;;8.00;71.04
32081;BME280;18593;51.426;7.030;2024-01-25T05:06:50;101781.09;;;8.00;71.11
32081;BME280;18593;51.426;7.030;2024-01-25T05:09:21;101769.97;;;7.97;70.85
32081;BME280;18593;51.426;7.030;2024-01-25T05:11:48;101760.47;;;7.94;70.95
32081;BME280;18593;51.426;7.030;2024-01-25T05:14:16;101768.63;;;7.93;70.96
32081;BME280;18593;51.426;7.030;2024-01-25T05:16:43;101762.47;;;7.92;71.17
32081;BME280;18593;51.426;7.030;2024-01-25T05:19:10;101774.09;;;7.91;71.23
32081;BME280;18593;51.426;7.030;2024-01-25T05:21:38;101773.59;;;7.88;71.26
32081;BME280;18593;51.426;7.030;2024-01-25T05:24:06;101772.75;;;7.87;71.11
32081;BME280;18593;51.426;7.030;2024-01-25T05:26:37;101773.06;;;7.84;70.97
32081;BME280;18593;51.426;7.030;2024-01-25T05:29:04;101763.63;;;7.82;70.75
32081;BME280;18593;51.426;7.030;2024-01-25T05:31:32;101769.22;;;7.79;70.82
32081;BME280;18593;51.426;7.030;2024-01-25T05:33:59;101770.41;;;7.76;71.19
32081;BME280;18593;51.426;7.030;2024-01-25T05:36:26;101770.53;;;7.74;71.07
32081;BME280;18593;51.426;7.030;2024-01-25T05:38:54;101769.72;;;7.74;70.97
32081;BME280;18593;51.426;7.030;2024-01-25T05:41:22;101769.19;;;7.70;70.69
32081;BME280;18593;51.426;7.030;2024-01-25T05:43:51;101771.84;;;7.70;70.87
32081;BME280;18593;51.426;7.030;2024-01-25T05:46:18;101769.38;;;7.69;70.94
32081;BME280;18593;51.426;7.030;2024-01-25T05:48:45;101774.69;;;7.69;70.96
32081;BME280;18593;51.426;7.030;2024-01-25T05:51:13;101773.19;;;7.66;71.21
32081;BME280;18593;51.426;7.030;2024-01-25T05:53:40;101772.19;;;7.67;71.29
32081;BME280;18593;51.426;7.030;2024-01-25T05:56:08;101772.34;;;7.66;71.50
32081;BME280;18593;51.426;7.030;2024-01-25T05:58:36;101781.16;;;7.66;71.59
32081;BME280;18593;51.426;7.030;2024-01-25T06:01:07;101784.63;;;7.67;71.59
32081;BME280;18593;51.426;7.030;2024-01-25T06:03:36;101779.47;;;7.65;71.44
32081;BME280;18593;51.426;7.030;2024-01-25T06:06:04;101786.59;;;7.65;71.68
32081;BME280;18593;51.426;7.030;2024-01-25T06:08:34;101794.91;;;7.62;71.88
32081;BME280;18593;51.426;7.030;2024-01-25T06:11:03;101795.88;;;7.61;71.74
32081;BME280;18593;51.426;7.030;2024-01-25T06:13:32;101793.38;;;7.59;71.62
32081;BME280;18593;51.426;7.030;2024-01-25T06:15:59;101788.06;;;7.59;71.77
32081;BME280;18593;51.426;7.030;2024-01-25T06:18:28;101784.25;;;7.54;71.79
32081;BME280;18593;51.426;7.030;2024-01-25T06:20:56;101787.06;;;7.52;71.64
32081;BME280;18593;51.426;7.030;2024-01-25T06:23:24;101787.06;;;7.52;72.08
32081;BME280;18593;51.426;7.030;2024-01-25T06:25:51;101788.03;;;7.51;71.96
32081;BME280;18593;51.426;7.030;2024-01-25T06:28:18;101789.84;;;7.51;72.01
32081;BME280;18593;51.426;7.030;2024-01-25T06:30:46;101800.47;;;7.51;72.00
32081;BME280;18593;51.426;7.030;2024-01-25T06:33:13;101805.94;;;7.49;71.72
32081;BME280;18593;51.426;7.030;2024-01-25T06:35:42;101805.94;;;7.49;71.93
32081;BME280;18593;51.426;7.030;2024-01-25T06:38:09;101801.47;;;7.49;72.09
32081;BME280;18593;51.426;7.030;2024-01-25T06:40:37;101813.09;;;7.48;72.09
32081;BME280;18593;51.426;7.030;2024-01-25T06:43:04;101808.91;;;7.46;71.72
32081;BME280;18593;51.426;7.030;2024-01-25T06:45:31;101801.28;;;7.43;71.95
32081;BME280;18593;51.426;7.030;2024-01-25T06:47:59;101810.22;;;7.42;71.92
32081;BME280;18593;51.426;7.030;2024-01-25T06:50:27;101810.53;;;7.39;72.13
32081;BME280;18593;51.426;7.030;2024-01-25T06:52:56;101821.16;;;7.39;72.07
32081;BME280;18593;51.426;7.030;2024-01-25T06:55:23;101832.75;;;7.38;72.14
32081;BME280;18593;51.426;7.030;2024-01-25T06:57:51;101828.59;;;7.35;72.14
32081;BME280;18593;51.426;7.030;2024-01-25T07:00:20;101834.72;;;7.36;72.44
32081;BME280;18593;51.426;7.030;2024-01-25T07:02:48;101833.72;;;7.37;72.75
32081;BME280;18593;51.426;7.030;2024-01-25T07:05:16;101838.22;;;7.36;72.95
32081;BME280;18593;51.426;7.030;2024-01-25T07:07:43;101843.69;;;7.35;73.13
32081;BME280;18593;51.426;7.030;2024-01-25T07:10:12;101836.72;;;7.34;72.82
32081;BME280;18593;51.426;7.030;2024-01-25T07:12:40;101845.50;;;7.34;72.52
32081;BME280;18593;51.426;7.030;2024-01-25T07:15:08;101850.97;;;7.33;72.58
32081;BME280;18593;51.426;7.030;2024-01-25T07:17:36;101848.47;;;7.31;72.43
32081;BME280;18593;51.426;7.030;2024-01-25T07:20:06;101851.28;;;7.30;72.78
32081;BME280;18593;51.426;7.030;2024-01-25T07:22:34;101851.94;;;7.32;72.71
32081;BME280;18593;51.426;7.030;2024-01-25T07:25:03;101849.91;;;7.26;72.92
32081;BME280;18593;51.426;7.030;2024-01-25T07:27:32;101850.75;;;7.26;73.09
32081;BME280;18593;51.426;7.030;2024-01-25T07:29:59;101848.09;;;7.26;72.75
32081;BME280;18593;51.426;7.030;2024-01-25T07:32:26;101844.59;;;7.26;72.55
32081;BME280;18593;51.426;7.030;2024-01-25T07:34:55;101847.44;;;7.24;72.59
32081;BME280;18593;51.426;7.030;2024-01-25T07:37:22;101851.22;;;7.21;72.75
32081;BME280;18593;51.426;7.030;2024-01-25T07:39:50;101848.72;;;7.20;73.01
32081;BME280;18593;51.426;7.030;2024-01-25T07:42:17;101854.03;;;7.20;72.87
32081;BME280;18593;51.426;7.030;2024-01-25T07:44:46;101855.84;;;7.19;72.88
32081;BME280;18593;51.426;7.030;2024-01-25T07:47:13;101855.03;;;7.19;72.87
32081;BME280;18593;51.426;7.030;2024-01-25T07:49:41;101855.03;;;7.19;73.18
32081;BME280;18593;51.426;7.030;2024-01-25T07:52:08;101864.81;;;7.18;73.42
32081;BME280;18593;51.426;7.030;2024-01-25T07:54:36;101879.56;;;7.21;73.57
32081;BME280;18593;51.426;7.030;2024-01-25T07:57:04;101876.78;;;7.22;73.62
32081;BME280;18593;51.426;7.030;2024-01-25T07:59:32;101874.13;;;7.22;73.98
32081;BME280;18593;51.426;7.030;2024-01-25T08:02:00;101870.47;;;7.23;73.84
32081;BME280;18593;51.426;7.030;2024-01-25T08:04:28;101871.47;;;7.22;74.04
32081;BME280;18593;51.426;7.030;2024-01-25T08:06:55;101874.78;;;7.25;74.18
32081;BME280;18593;51.426;7.030;2024-01-25T08:09:23;101881.63;;;7.27;74.21
32081;BME280;18593;51.426;7.030;2024-01-25T08:11:52;101878.66;;;7.30;74.20
32081;BME280;18593;51.426;7.030;2024-01-25T08:14:19;101893.91;;;7.28;74.38
32081;BME280;18593;51.426;7.030;2024-01-25T08:16:47;101881.47;;;7.29;74.50
32081;BME280;18593;51.426;7.030;2024-01-25T08:19:16;101879.81;;;7.28;74.70
32081;BME280;18593;51.426;7.030;2024-01-25T08:21:43;101877.00;;;7.29;74.66
32081;BME280;18593;51.426;7.030;2024-01-25T08:24:11;101882.59;;;7.26;74.75
32081;BME280;18593;51.426;7.030;2024-01-25T08:26:38;101897.69;;;7.26;75.29
32081;BME280;18593;51.426;7.030;2024-01-25T08:29:08;101887.91;;;7.26;75.38
32081;BME280;18593;51.426;7.030;2024-01-25T08:31:35;101882.59;;;7.26;75.63
32081;BME280;18593;51.426;7.030;2024-01-25T08:34:03;101885.13;;;7.28;75.62
32081;BME280;18593;51.426;7.030;2024-01-25T08:36:32;101882.13;;;7.31;75.75
32081;BME280;18593;51.426;7.030;2024-01-25T08:39:01;101886.44;;;7.32;76.20
32081;BME280;18593;51.426;7.030;2024-01-25T08:41:30;101885.97;;;7.36;76.08
32081;BME280;18593;51.426;7.030;2024-01-25T08:43:57;101880.53;;;7.38;76.47
32081;BME280;18593;51.426;7.030;2024-01-25T08:46:25;101872.56;;;7.38;76.79
32081;BME280;18593;51.426;7.030;2024-01-25T08:48:52;101874.41;;;7.37;76.79
32081;BME280;18593;51.426;7.030;2024-01-25T08:51:20;101875.91;;;7.40;76.71
32081;BME280;18593;51.426;7.030;2024-01-25T08:54:09;101874.06;;;7.40;76.67
32081;BME280;18593;51.426;7.030;2024-01-25T08:56:36;101864.16;;;7.42;76.91
32081;BME280;18593;51.426;7.030;2024-01-25T08:59:04;101874.44;;;7.45;76.56
32081;BME280;18593;51.426;7.030;2024-01-25T09:01:31;101869.66;;;7.49;76.76
32081;BME280;18593;51.426;7.030;2024-01-25T09:03:59;101874.31;;;7.47;76.98
32081;BME280;18593;51.426;7.030;2024-01-25T09:06:28;101862.69;;;7.48;76.94
32081;BME280;18593;51.426;7.030;2024-01-25T09:08:56;101862.34;;;7.51;77.03
32081;BME280;18593;51.426;7.030;2024-01-25T09:11:26;101863.72;;;7.55;77.11
32081;BME280;18593;51.426;7.030;2024-01-25T09:13:53;101861.59;;;7.59;77.16
32081;BME280;18593;51.426;7.030;2024-01-25T09:16:20;101856.94;;;7.61;77.09
32081;BME280;18593;51.426;7.030;2024-01-25T09:18:48;101865.44;;;7.64;77.16
32081;BME280;18593;51.426;7.030;2024-01-25T09:21:16;101863.13;;;7.69;77.09
32081;BME280;18593;51.426;7.030;2024-01-25T09:23:43;101876.94;;;7.73;77.13
32081;BME280;18593;51.426;7.030;2024-01-25T09:26:10;101868.81;;;7.74;77.50
32081;BME280;18593;51.426;7.030;2024-01-25T09:28:39;101884.44;;;7.78;77.54
32081;BME280;18593;51.426;7.030;2024-01-25T09:31:07;101872.81;;;7.79;77.30
32081;BME280;18593;51.426;7.030;2024-01-25T09:33:34;101874.59;;;7.70;77.73
32081;BME280;18593;51.426;7.030;2024-01-25T09:36:02;101887.38;;;7.74;77.61
32081;BME280;18593;51.426;7.030;2024-01-25T09:38:30;101906.97;;;7.73;77.72
32081;BME280;18593;51.426;7.030;2024-01-25T09:40:57;101906.16;;;7.73;77.94
32081;BME280;18593;51.426;7.030;2024-01-25T09:43:25;101909.31;;;7.77;78.00
32081;BME280;18593;51.426;7.030;2024-01-25T09:45:54;101910.66;;;7.81;77.91
32081;BME280;18593;51.426;7.030;2024-01-25T09:48:22;101911.97;;;7.77;78.42
32081;BME280;18593;51.426;7.030;2024-01-25T09:50:51;101894.69;;;7.72;78.71
32081;BME280;18593;51.426;7.030;2024-01-25T09:53:22;101883.72;;;7.75;79.19
32081;BME280;18593;51.426;7.030;2024-01-25T09:56:00;101883.44;;;7.79;78.98
32081;BME280;18593;51.426;7.030;2024-01-25T09:58:36;101891.03;;;7.73;79.28
32081;BME280;18593;51.426;7.030;2024-01-25T10:01:08;101899.06;;;7.82;79.35
32081;BME280;18593;51.426;7.030;2024-01-25T10:03:38;101904.69;;;7.79;79.17
32081;BME280;18593;51.426;7.030;2024-01-25T10:06:07;101913.13;;;7.74;79.71
32081;BME280;18593;51.426;7.030;2024-01-25T10:08:35;101915.47;;;7.77;79.42
32081;BME280;18593;51.426;7.030;2024-01-25T10:11:03;101913.13;;;7.74;79.75
32081;BME280;18593;51.426;7.030;2024-01-25T10:13:31;101914.16;;;7.81;79.55
32081;BME280;18593;51.426;7.030;2024-01-25T10:15:59;101908.84;;;7.81;79.47
32081;BME280;18593;51.426;7.030;2024-01-25T10:18:27;101917.31;;;7.85;79.49
32081;BME280;18593;51.426;7.030;2024-01-25T10:20:55;101912.47;;;7.80;79.78
32081;BME280;18593;51.426;7.030;2024-01-25T10:23:25;101908.00;;;7.81;79.80
32081;BME280;18593;51.426;7.030;2024-01-25T10:25:53;101912.47;;;7.80;80.01
32081;BME280;18593;51.426;7.030;2024-01-25T10:28:20;101917.00;;;7.88;79.80
32081;BME280;18593;51.426;7.030;2024-01-25T10:30:48;101924.69;;;7.91;79.98
32081;BME280;18593;51.426;7.030;2024-01-25T10:33:16;101920.69;;;7.95;79.49
32081;BME280;18593;51.426;7.030;2024-01-25T10:35:45;101904.44;;;7.98;79.33
32081;BME280;18593;51.426;7.030;2024-01-25T10:38:16;101913.78;;;8.02;79.28
32081;BME280;18593;51.426;7.030;2024-01-25T10:40:46;101902.44;;;8.00;79.31
32081;BME280;18593;51.426;7.030;2024-01-25T10:43:14;101892.19;;;8.05;79.28
32081;BME280;18593;51.426;7.030;2024-01-25T10:45:41;101882.91;;;8.09;79.00
32081;BME280;18593;51.426;7.030;2024-01-25T10:48:09;101878.28;;;8.11;79.17
32081;BME280;18593;51.426;7.030;2024-01-25T10:50:37;101877.63;;;8.17;79.18
32081;BME280;18593;51.426;7.030;2024-01-25T10:53:07;101872.84;;;8.21;78.97
32081;BME280;18593;51.426;7.030;2024-01-25T10:55:36;101869.69;;;8.25;78.85
32081;BME280;18593;51.426;7.030;2024-01-25T10:58:06;101858.22;;;8.25;78.73
32081;BME280;18593;51.426;7.030;2024-01-25T11:00:36;101859.72;;;8.27;78.71
32081;BME280;18593;51.426;7.030;2024-01-25T11:03:05;101864.03;;;8.29;78.59
32081;BME280;18593;51.426;7.030;2024-01-25T11:05:36;101856.22;;;8.27;78.08
32081;BME280;18593;51.426;7.030;2024-01-25T11:08:16;101850.41;;;8.23;77.80
32081;BME280;18593;51.426;7.030;2024-01-25T11:10:50;101858.22;;;8.25;77.72
32081;BME280;18593;51.426;7.030;2024-01-25T11:13:24;101845.59;;;8.27;78.17
32081;BME280;18593;51.426;7.030;2024-01-25T11:15:53;101844.47;;;8.30;77.71
32081;BME280;18593;51.426;7.030;2024-01-25T11:18:24;101833.84;;;8.30;77.56
32081;BME280;18593;51.426;7.030;2024-01-25T11:20:51;101834.16;;;8.35;77.49
32081;BME280;18593;51.426;7.030;2024-01-25T11:23:21;101832.03;;;8.38;77.10
32081;BME280;18593;51.426;7.030;2024-01-25T11:25:49;101825.22;;;8.44;76.91
32081;BME280;18593;51.426;7.030;2024-01-25T11:28:16;101828.06;;;8.42;76.51
32081;BME280;18593;51.426;7.030;2024-01-25T11:30:44;101830.53;;;8.44;76.48
32081;BME280;18593;51.426;7.030;2024-01-25T11:33:13;101821.72;;;8.43;76.06
32081;BME280;18593;51.426;7.030;2024-01-25T11:35:41;101822.22;;;8.39;75.99
32081;BME280;18593;51.426;7.030;2024-01-25T11:38:09;101816.25;;;8.37;76.23
32081;BME280;18593;51.426;7.030;2024-01-25T11:40:38;101805.31;;;8.40;76.28
32081;BME280;18593;51.426;7.030;2024-01-25T11:43:05;101802.31;;;8.43;76.52
32081;BME280;18593;51.426;7.030;2024-01-25T11:45:36;101799.97;;;8.48;75.94
32081;BME280;18593;51.426;7.030;2024-01-25T11:48:08;101790.38;;;8.55;76.16
32081;BME280;18593;51.426;7.030;2024-01-25T11:50:36;101790.84;;;8.59;75.95
32081;BME280;18593;51.426;7.030;2024-01-25T11:53:03;101794.69;;;8.64;75.73
32081;BME280;18593;51.426;7.030;2024-01-25T11:55:31;101790.03;;;8.66;75.88
32081;BME280;18593;51.426;7.030;2024-01-25T11:58:00;101788.88;;;8.61;75.42
32081;BME280;18593;51.426;7.030;2024-01-25T12:00:28;101786.03;;;8.62;75.22
32081;BME280;18593;51.426;7.030;2024-01-25T12:02:56;101784.72;;;8.66;75.49
32081;BME280;18593;51.426;7.030;2024-01-25T12:05:26;101793.00;;;8.63;74.94
32081;BME280;18593;51.426;7.030;2024-01-25T12:07:54;101781.06;;;8.59;74.36
32081;BME280;18593;51.426;7.030;2024-01-25T12:10:22;101769.09;;;8.55;74.76
32081;BME280;18593;51.426;7.030;2024-01-25T12:12:51;101757.44;;;8.56;74.27
32081;BME280;18593;51.426;7.030;2024-01-25T12:15:20;101751.97;;;8.58;74.45
32081;BME280;18593;51.426;7.030;2024-01-25T12:17:48;101756.81;;;8.54;74.45
32081;BME280;18593;51.426;7.030;2024-01-25T12:20:16;101752.44;;;8.53;74.70
32081;BME280;18593;51.426;7.030;2024-01-25T12:22:44;101755.78;;;8.55;74.81
32081;BME280;18593;51.426;7.030;2024-01-25T12:25:15;101755.63;;;8.57;74.95
32081;BME280;18593;51.426;7.030;2024-01-25T12:27:43;101742.00;;;8.60;74.97
32081;BME280;18593;51.426;7.030;2024-01-25T12:30:13;101734.69;;;8.62;74.74
32081;BME280;18593;51.426;7.030;2024-01-25T12:32:42;101743.66;;;8.61;74.61
32081;BME280;18593;51.426;7.030;2024-01-25T12:35:10;101737.84;;;8.65;74.81
32081;BME280;18593;51.426;7.030;2024-01-25T12:37:37;101743.66;;;8.69;74.92
32081;BME280;18593;51.426;7.030;2024-01-25T12:40:06;101752.97;;;8.65;74.27
32081;BME280;18593;51.426;7.030;2024-01-25T12:42:34;101755.63;;;8.65;74.46
32081;BME280;18593;51.426;7.030;2024-01-25T12:45:01;101750.97;;;8.67;74.17
32081;BME280;18593;51.426;7.030;2024-01-25T12:47:29;101755.97;;;8.70;74.49
32081;BME280;18593;51.426;7.030;2024-01-25T12:49:58;101760.09;;;8.72;74.73
32081;BME280;18593;51.426;7.030;2024-01-25T12:52:26;101760.94;;;8.73;74.57
32081;BME280;18593;51.426;7.030;2024-01-25T12:54:53;101761.75;;;8.73;74.63
32081;BME280;18593;51.426;7.030;2024-01-25T12:57:22;101754.78;;;8.72;74.78
32081;BME280;18593;51.426;7.030;2024-01-25T12:59:50;101751.47;;;8.70;75.04
32081;BME280;18593;51.426;7.030;2024-01-25T13:02:17;101736.16;;;8.72;75.37
32081;BME280;18593;51.426;7.030;2024-01-25T13:04:44;101731.16;;;8.77;75.19
32081;BME280;18593;51.426;7.030;2024-01-25T13:07:13;101735.84;;;8.75;74.95
32081;BME280;18593;51.426;7.030;2024-01-25T13:09:41;101740.81;;;8.70;74.63
32081;BME280;18593;51.426;7.030;2024-01-25T13:12:08;101742.47;;;8.71;74.91